sensor_id;sensor_type;location;lat;lon;timestamp;P1;durP1;ratioP1;P2;durP2;ratioP2
16524;SDS011;8375;33.594;-117.718;2024-01-16T00:00:07;9.17;;;5.20;;
16524;SDS011;8375;33.594;-117.718;2024-01-16T00:02:40;12.30;;;6.17;;
16524;SDS011;8375;33.594;-117.718;2024-01-16T00:05:10;13.13;;;6.13;;
16524;SDS011;8375;33.594;-117.718;2024-01-16T00:07:39;9.27;;;6.23;;
16524;SDS011;8375;33.594;-117.718;2024-01-16T00:10:10;10.77;;;6.77;;
16524;SDS011;8375;33.594;-117.718;2024-01-16T00:12:43;13.93;;;6.77;;
16524;SDS011;8375;33.594;-117.718;2024-01-16T00:15:13;9.37;;;6.03;;
16524;SDS011;8375;33.594;-117.718;2024-01-16T00:17:43;11.70;;;6.87;;
16524;SDS011;8375;33.594;-117.718;2024-01-16T00:20:12;10.40;;;6.73;;
16524;SDS011;8375;33.594;-117.718;2024-01-16T00:22:43;10.63;;;7.20;;
16524;SDS011;8375;33.594;-117.718;2024-01-16T00:25:17;10.43;;;7.60;;
16524;SDS011;8375;33.594;-117.718;2024-01-16T00:27:50;12.67;;;7.30;;
16524;SDS011;8375;33.594;-117.718;2024-01-16T00:30:24;9.30;;;7.33;;
16524;SDS011;8375;33.594;-117.718;2024-01-16T00:32:53;11.10;;;7.43;;
16524;SDS011;8375;33.594;-117.718;2024-01-16T00:35:23;10.00;;;7.50;;
16524;SDS011;8375;33.594;-117.718;2024-01-16T00:37:53;12.00;;;7.63;;
16524;SDS011;8375;33.594;-117.718;2024-01-16T00:40:24;16.53;;;8.50;;
16524;SDS011;8375;33.594;-117.718;2024-01-16T00:42:58;12.17;;;8.33;;
16524;SDS011;8375;33.594;-117.718;2024-01-16T00:45:37;15.43;;;8.90;;
16524;SDS011;8375;33.594;-117.718;2024-01-16T00:48:09;10.87;;;8.43;;
16524;SDS011;8375;33.594;-117.718;2024-01-16T00:50:39;10.57;;;7.93;;
16524;SDS011;8375;33.594;-117.718;2024-01-16T00:53:12;12.50;;;8.70;;
16524;SDS011;8375;33.594;-117.718;2024-01-16T00:55:44;14.60;;;8.13;;
16524;SDS011;8375;33.594;-117.718;2024-01-16T00:58:21;11.77;;;8.60;;
16524;SDS011;8375;33.594;-117.718;2024-01-16T01:00:51;13.77;;;8.90;;
16524;SDS011;8375;33.594;-117.718;2024-01-16T01:03:22;13.87;;;9.37;;
16524;SDS011;8375;33.594;-117.718;2024-01-16T01:05:54;15.80;;;9.87;;
16524;SDS011;8375;33.594;-117.718;2024-01-16T01:08:25;11.90;;;9.20;;
16524;SDS011;8375;33.594;-117.718;2024-01-16T01:10:56;13.17;;;8.57;;
16524;SDS011;8375;33.594;-117.718;2024-01-16T01:13:33;12.70;;;8.53;;
16524;SDS011;8375;33.594;-117.718;2024-01-16T01:16:02;12.00;;;8.37;;
16524;SDS011;8375;33.594;-117.718;2024-01-16T01:18:34;14.67;;;9.47;;
16524;SDS011;8375;33.594;-117.718;2024-01-16T01:21:06;13.87;;;9.07;;
16524;SDS011;8375;33.594;-117.718;2024-01-16T01:23:37;16.33;;;9.90;;
16524;SDS011;8375;33.594;-117.718;2024-01-16T01:26:07;14.00;;;9.93;;
16524;SDS011;8375;33.594;-117.718;2024-01-16T01:28:41;18.27;;;10.30;;
16524;SDS011;8375;33.594;-117.718;2024-01-16T01:31:11;13.00;;;9.80;;
16524;SDS011;8375;33.594;-117.718;2024-01-16T01:33:44;20.17;;;10.90;;
16524;SDS011;8375;33.594;-117.718;2024-01-16T01:36:15;12.47;;;9.83;;
16524;SDS011;8375;33.594;-117.718;2024-01-16T01:38:45;16.87;;;10.33;;
16524;SDS011;8375;33.594;-117.718;2024-01-16T01:41:29;14.13;;;10.53;;
16524;SDS011;8375;33.594;-117.718;2024-01-16T01:44:01;15.97;;;10.20;;
16524;SDS011;8375;33.594;-117.718;2024-01-16T01:46:32;13.67;;;10.53;;
16524;SDS011;8375;33.594;-117.718;2024-01-16T01:49:04;13.27;;;10.17;;
16524;SDS011;8375;33.594;-117.718;2024-01-16T01:51:36;15.33;;;10.40;;
16524;SDS011;8375;33.594;-117.718;2024-01-16T01:54:05;13.03;;;10.73;;
16524;SDS011;8375;33.594;-117.718;2024-01-16T01:56:42;12.70;;;10.93;;
16524;SDS011;8375;33.594;-117.718;2024-01-16T01:59:17;14.23;;;10.03;;
16524;SDS011;8375;33.594;-117.718;2024-01-16T02:01:51;12.43;;;10.77;;
16524;SDS011;8375;33.594;-117.718;2024-01-16T02:04:22;13.57;;;11.00;;
16524;SDS011;8375;33.594;-117.718;2024-01-16T02:06:54;13.63;;;11.87;;
16524;SDS011;8375;33.594;-117.718;2024-01-16T02:09:27;16.93;;;12.00;;
16524;SDS011;8375;33.594;-117.718;2024-01-16T02:11:59;16.40;;;12.40;;
16524;SDS011;8375;33.594;-117.718;2024-01-16T02:14:32;16.60;;;12.03;;
16524;SDS011;8375;33.594;-117.718;2024-01-16T02:17:04;15.73;;;11.57;;
16524;SDS011;8375;33.594;-117.718;2024-01-16T02:19:34;19.03;;;12.50;;
16524;SDS011;8375;33.594;-117.718;2024-01-16T02:22:06;15.40;;;13.27;;
16524;SDS011;8375;33.594;-117.718;2024-01-16T02:24:49;15.07;;;12.70;;
16524;SDS011;8375;33.594;-117.718;2024-01-16T02:27:21;14.73;;;12.40;;
16524;SDS011;8375;33.594;-117.718;2024-01-16T02:29:51;19.17;;;13.20;;
16524;SDS011;8375;33.594;-117.718;2024-01-16T02:32:24;17.83;;;12.10;;
16524;SDS011;8375;33.594;-117.718;2024-01-16T02:34:54;17.20;;;12.47;;
16524;SDS011;8375;33.594;-117.718;2024-01-16T02:37:25;14.97;;;12.40;;
16524;SDS011;8375;33.594;-117.718;2024-01-16T02:40:00;15.63;;;13.20;;
16524;SDS011;8375;33.594;-117.718;2024-01-16T02:42:36;14.13;;;12.67;;
16524;SDS011;8375;33.594;-117.718;2024-01-16T02:45:07;17.00;;;13.10;;
16524;SDS011;8375;33.594;-117.718;2024-01-16T02:47:38;17.37;;;13.60;;
16524;SDS011;8375;33.594;-117.718;2024-01-16T02:50:10;15.80;;;14.03;;
16524;SDS011;8375;33.594;-117.718;2024-01-16T02:52:40;16.00;;;13.57;;
16524;SDS011;8375;33.594;-117.718;2024-01-16T02:55:15;17.27;;;13.53;;
16524;SDS011;8375;33.594;-117.718;2024-01-16T02:57:47;16.00;;;14.37;;
16524;SDS011;8375;33.594;-117.718;2024-01-16T03:00:17;18.33;;;13.60;;
16524;SDS011;8375;33.594;-117.718;2024-01-16T03:02:56;17.47;;;14.23;;
16524;SDS011;8375;33.594;-117.718;2024-01-16T03:05:28;15.30;;;13.80;;
16524;SDS011;8375;33.594;-117.718;2024-01-16T03:07:58;18.93;;;13.10;;
16524;SDS011;8375;33.594;-117.718;2024-01-16T03:10:31;15.87;;;13.53;;
16524;SDS011;8375;33.594;-117.718;2024-01-16T03:13:03;14.43;;;12.60;;
16524;SDS011;8375;33.594;-117.718;2024-01-16T03:15:33;17.40;;;13.67;;
16524;SDS011;8375;33.594;-117.718;2024-01-16T03:18:04;14.90;;;13.03;;
16524;SDS011;8375;33.594;-117.718;2024-01-16T03:20:34;21.40;;;14.50;;
16524;SDS011;8375;33.594;-117.718;2024-01-16T03:23:05;17.00;;;13.83;;
16524;SDS011;8375;33.594;-117.718;2024-01-16T03:25:39;15.23;;;13.63;;
16524;SDS011;8375;33.594;-117.718;2024-01-16T03:28:09;15.83;;;14.20;;
16524;SDS011;8375;33.594;-117.718;2024-01-16T03:30:40;16.07;;;14.07;;
16524;SDS011;8375;33.594;-117.718;2024-01-16T03:33:11;16.10;;;14.43;;
16524;SDS011;8375;33.594;-117.718;2024-01-16T03:35:41;17.03;;;14.70;;
16524;SDS011;8375;33.594;-117.718;2024-01-16T03:38:19;19.33;;;14.63;;
16524;SDS011;8375;33.594;-117.718;2024-01-16T03:40:52;16.73;;;14.03;;
16524;SDS011;8375;33.594;-117.718;2024-01-16T03:43:23;16.97;;;14.40;;
16524;SDS011;8375;33.594;-117.718;2024-01-16T03:45:53;15.67;;;14.27;;
16524;SDS011;8375;33.594;-117.718;2024-01-16T03:48:25;17.20;;;14.43;;
16524;SDS011;8375;33.594;-117.718;2024-01-16T03:50:55;15.80;;;14.13;;
16524;SDS011;8375;33.594;-117.718;2024-01-16T03:53:25;16.60;;;14.30;;
16524;SDS011;8375;33.594;-117.718;2024-01-16T03:55:58;17.77;;;14.73;;
16524;SDS011;8375;33.594;-117.718;2024-01-16T03:58:29;16.70;;;15.10;;
16524;SDS011;8375;33.594;-117.718;2024-01-16T04:00:59;18.87;;;15.93;;
16524;SDS011;8375;33.594;-117.718;2024-01-16T04:03:30;17.53;;;15.60;;
16524;SDS011;8375;33.594;-117.718;2024-01-16T04:06:00;17.23;;;15.53;;
16524;SDS011;8375;33.594;-117.718;2024-01-16T04:08:29;17.40;;;15.33;;
16524;SDS011;8375;33.594;-117.718;2024-01-16T04:11:02;18.20;;;15.87;;
16524;SDS011;8375;33.594;-117.718;2024-01-16T04:13:31;18.20;;;16.27;;
16524;SDS011;8375;33.594;-117.718;2024-01-16T04:16:05;17.93;;;15.53;;
16524;SDS011;8375;33.594;-117.718;2024-01-16T04:18:35;21.67;;;17.40;;
16524;SDS011;8375;33.594;-117.718;2024-01-16T04:21:05;18.50;;;16.43;;
16524;SDS011;8375;33.594;-117.718;2024-01-16T04:23:35;19.17;;;16.87;;
16524;SDS011;8375;33.594;-117.718;2024-01-16T04:26:07;20.07;;;15.97;;
16524;SDS011;8375;33.594;-117.718;2024-01-16T04:28:36;21.17;;;16.30;;
16524;SDS011;8375;33.594;-117.718;2024-01-16T04:31:05;18.73;;;16.73;;
16524;SDS011;8375;33.594;-117.718;2024-01-16T04:33:35;19.03;;;17.13;;
16524;SDS011;8375;33.594;-117.718;2024-01-16T04:36:04;20.23;;;16.73;;
16524;SDS011;8375;33.594;-117.718;2024-01-16T04:38:35;19.20;;;16.13;;
16524;SDS011;8375;33.594;-117.718;2024-01-16T04:41:06;17.10;;;15.43;;
16524;SDS011;8375;33.594;-117.718;2024-01-16T04:43:35;17.70;;;16.03;;
16524;SDS011;8375;33.594;-117.718;2024-01-16T04:46:06;20.27;;;16.30;;
16524;SDS011;8375;33.594;-117.718;2024-01-16T04:48:35;19.23;;;17.27;;
16524;SDS011;8375;33.594;-117.718;2024-01-16T04:51:03;21.27;;;18.03;;
16524;SDS011;8375;33.594;-117.718;2024-01-16T04:53:33;18.80;;;16.77;;
16524;SDS011;8375;33.594;-117.718;2024-01-16T04:56:02;19.40;;;17.33;;
16524;SDS011;8375;33.594;-117.718;2024-01-16T04:58:32;23.33;;;18.07;;
16524;SDS011;8375;33.594;-117.718;2024-01-16T05:01:01;20.93;;;17.93;;
16524;SDS011;8375;33.594;-117.718;2024-01-16T05:03:29;20.70;;;18.50;;
16524;SDS011;8375;33.594;-117.718;2024-01-16T05:05:58;20.47;;;18.13;;
16524;SDS011;8375;33.594;-117.718;2024-01-16T05:08:27;21.03;;;18.23;;
16524;SDS011;8375;33.594;-117.718;2024-01-16T05:10:56;20.50;;;18.23;;
16524;SDS011;8375;33.594;-117.718;2024-01-16T05:13:24;21.33;;;17.97;;
16524;SDS011;8375;33.594;-117.718;2024-01-16T05:15:55;21.37;;;19.17;;
16524;SDS011;8375;33.594;-117.718;2024-01-16T05:18:23;20.67;;;18.53;;
16524;SDS011;8375;33.594;-117.718;2024-01-16T05:20:52;23.13;;;18.70;;
16524;SDS011;8375;33.594;-117.718;2024-01-16T05:23:21;21.00;;;18.80;;
16524;SDS011;8375;33.594;-117.718;2024-01-16T05:25:50;21.30;;;19.00;;
16524;SDS011;8375;33.594;-117.718;2024-01-16T05:28:18;22.60;;;19.67;;
16524;SDS011;8375;33.594;-117.718;2024-01-16T05:30:47;23.83;;;21.33;;
16524;SDS011;8375;33.594;-117.718;2024-01-16T05:33:17;22.47;;;19.90;;
16524;SDS011;8375;33.594;-117.718;2024-01-16T05:35:46;23.40;;;20.70;;
16524;SDS011;8375;33.594;-117.718;2024-01-16T05:38:14;22.43;;;19.97;;
16524;SDS011;8375;33.594;-117.718;2024-01-16T05:40:43;24.93;;;19.43;;
16524;SDS011;8375;33.594;-117.718;2024-01-16T05:43:12;22.67;;;20.23;;
16524;SDS011;8375;33.594;-117.718;2024-01-16T05:45:40;23.07;;;20.63;;
16524;SDS011;8375;33.594;-117.718;2024-01-16T05:48:09;23.10;;;20.63;;
16524;SDS011;8375;33.594;-117.718;2024-01-16T05:50:39;22.73;;;20.33;;
16524;SDS011;8375;33.594;-117.718;2024-01-16T05:53:08;27.63;;;21.23;;
16524;SDS011;8375;33.594;-117.718;2024-01-16T05:55:37;23.50;;;21.10;;
16524;SDS011;8375;33.594;-117.718;2024-01-16T05:58:06;23.80;;;21.30;;
16524;SDS011;8375;33.594;-117.718;2024-01-16T06:00:34;23.83;;;21.07;;
16524;SDS011;8375;33.594;-117.718;2024-01-16T06:03:05;22.97;;;20.60;;
16524;SDS011;8375;33.594;-117.718;2024-01-16T06:05:33;23.67;;;21.10;;
16524;SDS011;8375;33.594;-117.718;2024-01-16T06:08:04;23.07;;;20.70;;
16524;SDS011;8375;33.594;-117.718;2024-01-16T06:10:34;23.57;;;20.93;;
16524;SDS011;8375;33.594;-117.718;2024-01-16T06:13:02;24.27;;;21.10;;
16524;SDS011;8375;33.594;-117.718;2024-01-16T06:15:31;24.83;;;20.97;;
16524;SDS011;8375;33.594;-117.718;2024-01-16T06:18:00;22.57;;;20.23;;
16524;SDS011;8375;33.594;-117.718;2024-01-16T06:20:28;22.00;;;19.57;;
16524;SDS011;8375;33.594;-117.718;2024-01-16T06:22:58;25.83;;;20.43;;
16524;SDS011;8375;33.594;-117.718;2024-01-16T06:25:28;22.90;;;20.70;;
16524;SDS011;8375;33.594;-117.718;2024-01-16T06:27:57;24.10;;;21.50;;
16524;SDS011;8375;33.594;-117.718;2024-01-16T06:30:26;24.53;;;21.97;;
16524;SDS011;8375;33.594;-117.718;2024-01-16T06:32:54;24.53;;;22.03;;
16524;SDS011;8375;33.594;-117.718;2024-01-16T06:35:23;27.20;;;24.00;;
16524;SDS011;8375;33.594;-117.718;2024-01-16T06:37:51;26.23;;;22.70;;
16524;SDS011;8375;33.594;-117.718;2024-01-16T06:40:20;26.33;;;23.53;;
16524;SDS011;8375;33.594;-117.718;2024-01-16T06:42:50;28.47;;;24.40;;
16524;SDS011;8375;33.594;-117.718;2024-01-16T06:45:19;26.67;;;23.73;;
16524;SDS011;8375;33.594;-117.718;2024-01-16T06:47:47;28.80;;;25.43;;
16524;SDS011;8375;33.594;-117.718;2024-01-16T06:50:16;28.87;;;25.83;;
16524;SDS011;8375;33.594;-117.718;2024-01-16T06:52:45;30.07;;;26.67;;
16524;SDS011;8375;33.594;-117.718;2024-01-16T06:55:13;30.20;;;26.63;;
16524;SDS011;8375;33.594;-117.718;2024-01-16T06:57:42;30.63;;;27.33;;
16524;SDS011;8375;33.594;-117.718;2024-01-16T07:00:14;29.80;;;25.60;;
16524;SDS011;8375;33.594;-117.718;2024-01-16T07:02:43;27.73;;;24.73;;
16524;SDS011;8375;33.594;-117.718;2024-01-16T07:05:12;30.33;;;26.10;;
16524;SDS011;8375;33.594;-117.718;2024-01-16T07:07:41;29.47;;;25.73;;
16524;SDS011;8375;33.594;-117.718;2024-01-16T07:10:10;29.93;;;26.77;;
16524;SDS011;8375;33.594;-117.718;2024-01-16T07:12:43;28.70;;;25.70;;
16524;SDS011;8375;33.594;-117.718;2024-01-16T07:15:19;31.93;;;25.67;;
16524;SDS011;8375;33.594;-117.718;2024-01-16T07:17:48;30.13;;;24.47;;
16524;SDS011;8375;33.594;-117.718;2024-01-16T07:20:16;27.30;;;23.17;;
16524;SDS011;8375;33.594;-117.718;2024-01-16T07:22:45;27.20;;;24.43;;
16524;SDS011;8375;33.594;-117.718;2024-01-16T07:25:14;27.90;;;24.90;;
16524;SDS011;8375;33.594;-117.718;2024-01-16T07:27:42;29.33;;;25.33;;
16524;SDS011;8375;33.594;-117.718;2024-01-16T07:30:14;27.50;;;24.33;;
16524;SDS011;8375;33.594;-117.718;2024-01-16T07:32:44;31.20;;;25.40;;
16524;SDS011;8375;33.594;-117.718;2024-01-16T07:35:14;26.40;;;23.80;;
16524;SDS011;8375;33.594;-117.718;2024-01-16T07:37:42;29.17;;;25.63;;
16524;SDS011;8375;33.594;-117.718;2024-01-16T07:40:11;28.23;;;25.23;;
16524;SDS011;8375;33.594;-117.718;2024-01-16T07:42:42;29.80;;;24.40;;
16524;SDS011;8375;33.594;-117.718;2024-01-16T07:45:11;27.70;;;24.50;;
16524;SDS011;8375;33.594;-117.718;2024-01-16T07:47:39;29.23;;;24.00;;
16524;SDS011;8375;33.594;-117.718;2024-01-16T07:50:10;30.73;;;24.30;;
16524;SDS011;8375;33.594;-117.718;2024-01-16T11:20:09;29.30;;;24.40;;
16524;SDS011;8375;33.594;-117.718;2024-01-16T11:22:41;27.63;;;24.50;;
16524;SDS011;8375;33.594;-117.718;2024-01-16T11:25:11;28.17;;;24.53;;
16524;SDS011;8375;33.594;-117.718;2024-01-16T11:27:40;28.47;;;25.47;;
16524;SDS011;8375;33.594;-117.718;2024-01-16T11:30:10;27.30;;;24.23;;
16524;SDS011;8375;33.594;-117.718;2024-01-16T11:32:40;30.03;;;25.80;;
16524;SDS011;8375;33.594;-117.718;2024-01-16T11:35:11;27.93;;;24.73;;
16524;SDS011;8375;33.594;-117.718;2024-01-16T11:37:41;27.57;;;24.20;;
16524;SDS011;8375;33.594;-117.718;2024-01-16T11:40:25;26.60;;;23.87;;
16524;SDS011;8375;33.594;-117.718;2024-01-16T11:42:54;28.30;;;25.30;;
16524;SDS011;8375;33.594;-117.718;2024-01-16T11:48:19;29.80;;;24.83;;
16524;SDS011;8375;33.594;-117.718;2024-01-16T11:59:11;26.97;;;24.07;;
16524;SDS011;8375;33.594;-117.718;2024-01-16T12:01:57;25.77;;;23.07;;
16524;SDS011;8375;33.594;-117.718;2024-01-16T12:04:27;28.47;;;24.07;;
16524;SDS011;8375;33.594;-117.718;2024-01-16T12:06:56;30.27;;;25.30;;
16524;SDS011;8375;33.594;-117.718;2024-01-16T12:09:27;28.10;;;24.47;;
16524;SDS011;8375;33.594;-117.718;2024-01-16T12:11:56;26.60;;;23.43;;
16524;SDS011;8375;33.594;-117.718;2024-01-16T12:14:26;28.80;;;24.03;;
16524;SDS011;8375;33.594;-117.718;2024-01-16T12:17:08;28.57;;;24.63;;
16524;SDS011;8375;33.594;-117.718;2024-01-16T12:19:37;30.80;;;24.63;;
16524;SDS011;8375;33.594;-117.718;2024-01-16T12:22:08;30.83;;;24.87;;
16524;SDS011;8375;33.594;-117.718;2024-01-16T12:24:39;27.40;;;24.50;;
16524;SDS011;8375;33.594;-117.718;2024-01-16T12:27:07;28.53;;;24.40;;
16524;SDS011;8375;33.594;-117.718;2024-01-16T12:29:36;26.83;;;24.00;;
16524;SDS011;8375;33.594;-117.718;2024-01-16T12:32:07;27.10;;;24.17;;
16524;SDS011;8375;33.594;-117.718;2024-01-16T12:34:43;33.83;;;25.80;;
16524;SDS011;8375;33.594;-117.718;2024-01-16T12:37:12;31.93;;;26.37;;
16524;SDS011;8375;33.594;-117.718;2024-01-16T12:39:43;30.30;;;26.80;;
16524;SDS011;8375;33.594;-117.718;2024-01-16T12:42:11;35.00;;;27.03;;
16524;SDS011;8375;33.594;-117.718;2024-01-16T12:44:40;36.30;;;28.97;;
16524;SDS011;8375;33.594;-117.718;2024-01-16T12:47:09;35.27;;;29.67;;
16524;SDS011;8375;33.594;-117.718;2024-01-16T12:49:40;34.07;;;29.43;;
16524;SDS011;8375;33.594;-117.718;2024-01-16T12:52:19;33.47;;;28.13;;
16524;SDS011;8375;33.594;-117.718;2024-01-16T12:54:59;31.57;;;28.17;;
16524;SDS011;8375;33.594;-117.718;2024-01-16T12:57:30;30.37;;;27.27;;
16524;SDS011;8375;33.594;-117.718;2024-01-16T12:59:58;36.43;;;29.40;;
16524;SDS011;8375;33.594;-117.718;2024-01-16T13:02:30;32.43;;;27.60;;
16524;SDS011;8375;33.594;-117.718;2024-01-16T13:04:59;32.53;;;27.93;;
16524;SDS011;8375;33.594;-117.718;2024-01-16T13:07:30;30.93;;;26.47;;
16524;SDS011;8375;33.594;-117.718;2024-01-16T13:10:10;32.43;;;27.23;;
16524;SDS011;8375;33.594;-117.718;2024-01-16T13:12:41;32.73;;;26.60;;
16524;SDS011;8375;33.594;-117.718;2024-01-16T13:15:10;32.07;;;27.80;;
16524;SDS011;8375;33.594;-117.718;2024-01-16T13:17:42;30.80;;;27.03;;
16524;SDS011;8375;33.594;-117.718;2024-01-16T13:20:11;32.80;;;28.57;;
16524;SDS011;8375;33.594;-117.718;2024-01-16T13:22:40;29.50;;;26.03;;
16524;SDS011;8375;33.594;-117.718;2024-01-16T13:25:10;36.17;;;27.40;;
16524;SDS011;8375;33.594;-117.718;2024-01-16T13:27:39;30.23;;;27.00;;
16524;SDS011;8375;33.594;-117.718;2024-01-16T13:30:09;32.60;;;27.70;;
16524;SDS011;8375;33.594;-117.718;2024-01-16T13:32:38;32.17;;;28.70;;
16524;SDS011;8375;33.594;-117.718;2024-01-16T13:35:06;34.10;;;28.77;;
16524;SDS011;8375;33.594;-117.718;2024-01-16T13:37:37;35.40;;;31.03;;
16524;SDS011;8375;33.594;-117.718;2024-01-16T13:40:06;34.80;;;31.10;;
16524;SDS011;8375;33.594;-117.718;2024-01-16T13:42:38;41.83;;;33.80;;
16524;SDS011;8375;33.594;-117.718;2024-01-16T13:45:07;37.77;;;33.43;;
16524;SDS011;8375;33.594;-117.718;2024-01-16T13:47:39;41.13;;;33.03;;
16524;SDS011;8375;33.594;-117.718;2024-01-16T13:50:08;36.10;;;29.23;;
16524;SDS011;8375;33.594;-117.718;2024-01-16T13:52:37;36.07;;;31.80;;
16524;SDS011;8375;33.594;-117.718;2024-01-16T13:55:07;34.17;;;28.77;;
16524;SDS011;8375;33.594;-117.718;2024-01-16T13:57:38;35.40;;;29.67;;
16524;SDS011;8375;33.594;-117.718;2024-01-16T14:00:09;32.30;;;28.73;;
16524;SDS011;8375;33.594;-117.718;2024-01-16T14:02:41;34.23;;;28.00;;
16524;SDS011;8375;33.594;-117.718;2024-01-16T14:05:11;30.87;;;26.73;;
16524;SDS011;8375;33.594;-117.718;2024-01-16T14:07:43;29.43;;;26.20;;
16524;SDS011;8375;33.594;-117.718;2024-01-16T14:10:12;30.53;;;26.00;;
16524;SDS011;8375;33.594;-117.718;2024-01-16T14:12:46;31.17;;;26.43;;
16524;SDS011;8375;33.594;-117.718;2024-01-16T14:15:18;31.10;;;26.33;;
16524;SDS011;8375;33.594;-117.718;2024-01-16T14:17:49;31.73;;;27.47;;
16524;SDS011;8375;33.594;-117.718;2024-01-16T14:20:20;37.83;;;27.27;;
16524;SDS011;8375;33.594;-117.718;2024-01-16T14:22:49;33.53;;;27.23;;
16524;SDS011;8375;33.594;-117.718;2024-01-16T14:25:19;31.90;;;26.63;;
16524;SDS011;8375;33.594;-117.718;2024-01-16T14:27:55;30.37;;;26.60;;
16524;SDS011;8375;33.594;-117.718;2024-01-16T14:30:24;31.27;;;26.90;;
16524;SDS011;8375;33.594;-117.718;2024-01-16T14:32:54;29.43;;;26.30;;
16524;SDS011;8375;33.594;-117.718;2024-01-16T14:35:23;31.33;;;26.73;;
16524;SDS011;8375;33.594;-117.718;2024-01-16T14:37:52;30.90;;;27.07;;
16524;SDS011;8375;33.594;-117.718;2024-01-16T14:40:21;34.00;;;26.63;;
16524;SDS011;8375;33.594;-117.718;2024-01-16T14:42:55;35.43;;;27.13;;
16524;SDS011;8375;33.594;-117.718;2024-01-16T14:45:30;33.30;;;26.23;;
16524;SDS011;8375;33.594;-117.718;2024-01-16T14:47:59;35.03;;;27.87;;
16524;SDS011;8375;33.594;-117.718;2024-01-16T14:50:29;36.67;;;29.50;;
16524;SDS011;8375;33.594;-117.718;2024-01-16T14:52:58;38.07;;;30.23;;
16524;SDS011;8375;33.594;-117.718;2024-01-16T14:55:28;37.73;;;29.03;;
16524;SDS011;8375;33.594;-117.718;2024-01-16T14:58:00;32.20;;;28.40;;
16524;SDS011;8375;33.594;-117.718;2024-01-16T15:00:29;35.53;;;27.73;;
16524;SDS011;8375;33.594;-117.718;2024-01-16T15:02:59;31.97;;;27.20;;
16524;SDS011;8375;33.594;-117.718;2024-01-16T15:05:28;32.23;;;26.63;;
16524;SDS011;8375;33.594;-117.718;2024-01-16T15:08:00;32.67;;;27.23;;
16524;SDS011;8375;33.594;-117.718;2024-01-16T15:10:30;38.17;;;29.63;;
16524;SDS011;8375;33.594;-117.718;2024-01-16T15:13:00;39.37;;;30.37;;
16524;SDS011;8375;33.594;-117.718;2024-01-16T15:15:29;36.30;;;28.10;;
16524;SDS011;8375;33.594;-117.718;2024-01-16T15:17:57;32.27;;;28.27;;
16524;SDS011;8375;33.594;-117.718;2024-01-16T15:20:26;35.03;;;29.80;;
16524;SDS011;8375;33.594;-117.718;2024-01-16T15:22:55;40.73;;;31.67;;
16524;SDS011;8375;33.594;-117.718;2024-01-16T15:25:24;39.20;;;30.20;;
16524;SDS011;8375;33.594;-117.718;2024-01-16T15:27:56;38.23;;;31.07;;
16524;SDS011;8375;33.594;-117.718;2024-01-16T15:30:26;38.57;;;31.70;;
16524;SDS011;8375;33.594;-117.718;2024-01-16T15:32:58;39.20;;;33.03;;
16524;SDS011;8375;33.594;-117.718;2024-01-16T15:35:27;36.47;;;29.67;;
16524;SDS011;8375;33.594;-117.718;2024-01-16T15:37:55;34.47;;;28.77;;
16524;SDS011;8375;33.594;-117.718;2024-01-16T15:40:24;31.97;;;28.50;;
16524;SDS011;8375;33.594;-117.718;2024-01-16T15:42:53;30.73;;;27.17;;
16524;SDS011;8375;33.594;-117.718;2024-01-16T15:45:22;30.90;;;25.77;;
16524;SDS011;8375;33.594;-117.718;2024-01-16T15:47:54;29.73;;;25.73;;
16524;SDS011;8375;33.594;-117.718;2024-01-16T15:50:23;28.20;;;25.20;;
16524;SDS011;8375;33.594;-117.718;2024-01-16T15:52:53;26.97;;;24.07;;
16524;SDS011;8375;33.594;-117.718;2024-01-16T15:55:23;27.10;;;24.27;;
16524;SDS011;8375;33.594;-117.718;2024-01-16T15:57:52;29.17;;;24.60;;
16524;SDS011;8375;33.594;-117.718;2024-01-16T16:00:21;26.23;;;23.63;;
16524;SDS011;8375;33.594;-117.718;2024-01-16T16:02:51;26.67;;;24.00;;
16524;SDS011;8375;33.594;-117.718;2024-01-16T16:05:24;27.07;;;23.77;;
16524;SDS011;8375;33.594;-117.718;2024-01-16T16:07:52;26.77;;;23.73;;
16524;SDS011;8375;33.594;-117.718;2024-01-16T16:10:21;26.53;;;23.53;;
16524;SDS011;8375;33.594;-117.718;2024-01-16T16:12:50;26.40;;;23.60;;
16524;SDS011;8375;33.594;-117.718;2024-01-16T16:15:19;29.53;;;24.53;;
16524;SDS011;8375;33.594;-117.718;2024-01-16T16:17:48;29.00;;;24.67;;
16524;SDS011;8375;33.594;-117.718;2024-01-16T16:20:18;26.90;;;24.13;;
16524;SDS011;8375;33.594;-117.718;2024-01-16T16:22:49;26.63;;;23.90;;
16524;SDS011;8375;33.594;-117.718;2024-01-16T16:25:19;26.95;;;24.55;;
16524;SDS011;8375;33.594;-117.718;2024-01-16T16:27:47;26.58;;;23.98;;
16524;SDS011;8375;33.594;-117.718;2024-01-16T16:30:16;27.55;;;24.65;;
16524;SDS011;8375;33.594;-117.718;2024-01-16T16:32:45;29.60;;;26.60;;
16524;SDS011;8375;33.594;-117.718;2024-01-16T16:35:13;28.00;;;25.10;;
16524;SDS011;8375;33.594;-117.718;2024-01-16T16:37:44;28.80;;;26.00;;
16524;SDS011;8375;33.594;-117.718;2024-01-16T16:40:12;30.40;;;27.00;;
16524;SDS011;8375;33.594;-117.718;2024-01-16T16:42:41;31.20;;;26.73;;
16524;SDS011;8375;33.594;-117.718;2024-01-16T16:45:10;29.03;;;26.13;;
16524;SDS011;8375;33.594;-117.718;2024-01-16T16:47:38;26.47;;;23.97;;
16524;SDS011;8375;33.594;-117.718;2024-01-16T16:50:08;24.65;;;22.13;;
16524;SDS011;8375;33.594;-117.718;2024-01-16T16:52:37;23.52;;;21.05;;
16524;SDS011;8375;33.594;-117.718;2024-01-16T16:55:07;25.30;;;22.17;;
16524;SDS011;8375;33.594;-117.718;2024-01-16T16:57:36;28.73;;;23.52;;
16524;SDS011;8375;33.594;-117.718;2024-01-16T17:00:05;26.38;;;23.67;;
16524;SDS011;8375;33.594;-117.718;2024-01-16T17:02:36;27.10;;;24.20;;
16524;SDS011;8375;33.594;-117.718;2024-01-16T17:05:05;28.50;;;25.43;;
16524;SDS011;8375;33.594;-117.718;2024-01-16T17:07:35;30.30;;;26.57;;
16524;SDS011;8375;33.594;-117.718;2024-01-16T17:10:04;30.03;;;26.73;;
16524;SDS011;8375;33.594;-117.718;2024-01-16T17:12:35;33.30;;;28.03;;
16524;SDS011;8375;33.594;-117.718;2024-01-16T17:15:04;29.77;;;26.90;;
16524;SDS011;8375;33.594;-117.718;2024-01-16T17:17:33;30.13;;;26.17;;
16524;SDS011;8375;33.594;-117.718;2024-01-16T17:20:02;31.10;;;27.73;;
16524;SDS011;8375;33.594;-117.718;2024-01-16T17:22:32;30.73;;;27.17;;
16524;SDS011;8375;33.594;-117.718;2024-01-16T17:25:01;31.43;;;28.37;;
16524;SDS011;8375;33.594;-117.718;2024-01-16T17:27:29;29.10;;;26.10;;
16524;SDS011;8375;33.594;-117.718;2024-01-16T17:30:00;28.77;;;24.23;;
16524;SDS011;8375;33.594;-117.718;2024-01-16T17:32:28;32.50;;;27.70;;
16524;SDS011;8375;33.594;-117.718;2024-01-16T17:34:57;31.97;;;28.07;;
16524;SDS011;8375;33.594;-117.718;2024-01-16T17:37:25;34.50;;;28.20;;
16524;SDS011;8375;33.594;-117.718;2024-01-16T17:39:54;34.17;;;30.60;;
16524;SDS011;8375;33.594;-117.718;2024-01-16T17:42:22;33.17;;;29.73;;
16524;SDS011;8375;33.594;-117.718;2024-01-16T17:44:51;34.23;;;30.83;;
16524;SDS011;8375;33.594;-117.718;2024-01-16T17:47:25;35.20;;;30.30;;
16524;SDS011;8375;33.594;-117.718;2024-01-16T17:49:54;39.33;;;32.53;;
16524;SDS011;8375;33.594;-117.718;2024-01-16T17:52:23;35.70;;;31.90;;
16524;SDS011;8375;33.594;-117.718;2024-01-16T17:54:51;36.83;;;33.03;;